TAF and METAR

Decoding for American and Canadian METARs and TAFs is not fully implemented.

Could not understand the following METAR

KVRB 192053Z 17008KT 9SM FEW090 BKN110 28/26 A2981 RMK AO2 RAB1959E30 SLP095 P0003 60007 T02830256 56010

TAF for Vero Beach Municipal Airport

KVRB 191857Z 1919/2018 18012KT P6SM VCSH SCT030 BKN080 FM200100 20009KT P6SM SCT020 BKN040 BKN100 FM201400 23007KT P6SM SCT025 SCT100
Report created 19. okt 20:57

between 19. okt 21:00 - 20. okt 20:00

wind 12 knots from S (180°)
Vero Beach Municipal Airport in United States of America at 10m

Latest 5 airports